createdAt,value
2022-07-30T00:00:24.671Z,0.00
2022-07-30T00:01:24.481Z,0.00
2022-07-30T00:03:28.516Z,0.00
2022-07-30T00:04:28.459Z,0.00
2022-07-30T00:06:32.456Z,0.00
2022-07-30T00:07:32.438Z,0.00
2022-07-30T00:09:36.920Z,0.00
2022-07-30T00:10:36.434Z,0.00
2022-07-30T00:11:36.428Z,0.00
2022-07-30T00:12:36.437Z,0.00
2022-07-30T00:13:36.439Z,0.00
2022-07-30T00:14:36.439Z,0.00
2022-07-30T00:15:36.477Z,0.00
2022-07-30T00:16:36.542Z,0.00
2022-07-30T00:17:36.465Z,0.00
2022-07-30T00:18:36.446Z,0.00
2022-07-30T00:19:36.452Z,0.00
2022-07-30T00:20:36.454Z,0.00
2022-07-30T00:21:39.176Z,0.00
2022-07-30T00:22:36.467Z,0.00
2022-07-30T00:23:36.456Z,0.00
2022-07-30T00:24:36.464Z,0.00
2022-07-30T00:25:36.463Z,0.00
2022-07-30T00:26:36.457Z,0.00
2022-07-30T00:27:36.466Z,0.00
2022-07-30T00:28:36.473Z,0.00
2022-07-30T00:29:36.469Z,0.00
2022-07-30T00:30:36.540Z,0.00
2022-07-30T00:31:36.502Z,0.00
2022-07-30T00:32:36.486Z,0.00
2022-07-30T00:33:36.486Z,0.00
2022-07-30T00:34:36.485Z,0.00
2022-07-30T00:35:36.489Z,0.00
2022-07-30T00:36:36.506Z,0.00
2022-07-30T00:37:36.517Z,0.00
2022-07-30T00:38:36.490Z,0.00
2022-07-30T00:39:36.490Z,0.00
2022-07-30T00:40:36.495Z,0.00
2022-07-30T00:41:36.493Z,0.00
2022-07-30T00:42:36.505Z,0.00
2022-07-30T00:43:36.508Z,0.00
2022-07-30T00:44:36.499Z,0.00
2022-07-30T00:45:36.527Z,0.00
2022-07-30T00:46:36.506Z,0.00
2022-07-30T00:47:36.515Z,0.00
2022-07-30T00:48:36.519Z,0.00
2022-07-30T00:49:39.299Z,0.00
2022-07-30T00:50:36.530Z,0.00
2022-07-30T00:51:36.519Z,0.00
2022-07-30T00:52:36.522Z,0.00
2022-07-30T00:53:36.546Z,0.00
2022-07-30T00:54:36.529Z,0.00
2022-07-30T00:55:36.528Z,0.00
2022-07-30T00:56:36.531Z,0.00
2022-07-30T00:57:36.527Z,0.00
2022-07-30T00:58:36.529Z,0.00
2022-07-30T00:59:36.530Z,0.00
2022-07-30T01:00:36.537Z,0.00
2022-07-30T01:01:36.627Z,0.00
2022-07-30T01:02:36.592Z,0.00
2022-07-30T01:03:36.541Z,0.00
2022-07-30T01:04:36.543Z,0.00
2022-07-30T01:05:36.543Z,0.00
2022-07-30T01:06:36.553Z,0.00
2022-07-30T01:07:36.553Z,0.00
2022-07-30T01:08:36.560Z,0.00
2022-07-30T01:09:36.564Z,0.00
2022-07-30T01:10:36.566Z,0.00
2022-07-30T01:11:36.573Z,0.00
2022-07-30T01:12:36.576Z,0.00
2022-07-30T01:13:36.584Z,0.00
2022-07-30T01:14:36.602Z,0.00
2022-07-30T01:15:36.608Z,0.00
2022-07-30T01:16:37.966Z,0.00
2022-07-30T01:17:36.568Z,0.00
2022-07-30T01:18:36.570Z,0.00
2022-07-30T01:19:36.575Z,0.00
2022-07-30T01:20:36.581Z,0.00
2022-07-30T01:21:36.575Z,0.00
2022-07-30T01:22:36.577Z,0.00
2022-07-30T01:23:36.581Z,0.00
2022-07-30T01:24:36.585Z,0.00
2022-07-30T01:25:36.587Z,0.00
2022-07-30T01:26:36.610Z,0.00
2022-07-30T01:27:36.588Z,0.00
2022-07-30T01:28:36.605Z,0.00
2022-07-30T01:29:36.596Z,0.00
2022-07-30T01:30:36.658Z,0.00
2022-07-30T01:31:36.777Z,0.00
2022-07-30T01:32:36.633Z,0.00
2022-07-30T01:33:36.618Z,0.00
2022-07-30T01:34:36.620Z,0.00
2022-07-30T01:35:36.633Z,0.00
2022-07-30T01:36:36.640Z,0.00
2022-07-30T01:37:36.617Z,0.00
2022-07-30T01:38:36.658Z,0.00
2022-07-30T01:39:36.633Z,0.00
2022-07-30T01:40:36.609Z,0.00
2022-07-30T01:41:36.634Z,0.00
2022-07-30T01:42:36.618Z,0.00
2022-07-30T01:43:36.645Z,0.00
2022-07-30T01:44:36.682Z,0.00
2022-07-30T01:45:42.212Z,0.00
2022-07-30T01:46:36.623Z,0.00
2022-07-30T01:47:36.629Z,0.00
2022-07-30T01:48:36.627Z,0.00
2022-07-30T01:49:36.632Z,0.00
2022-07-30T01:50:36.640Z,0.00
2022-07-30T01:51:37.616Z,0.00
2022-07-30T01:52:36.647Z,0.00
2022-07-30T01:53:36.650Z,0.00
2022-07-30T01:54:36.667Z,0.00
2022-07-30T01:55:36.663Z,0.00
2022-07-30T01:56:36.666Z,0.00
2022-07-30T01:57:36.664Z,0.00
2022-07-30T01:58:36.651Z,0.00
2022-07-30T01:59:36.656Z,0.00
2022-07-30T02:00:36.735Z,0.00
2022-07-30T02:01:36.654Z,0.00
2022-07-30T02:02:36.672Z,0.00
2022-07-30T02:03:36.693Z,0.00
2022-07-30T02:04:36.666Z,0.00
2022-07-30T02:05:36.663Z,0.00
2022-07-30T02:06:36.662Z,0.00
2022-07-30T02:07:36.664Z,0.00
2022-07-30T02:08:36.665Z,0.00
2022-07-30T02:09:36.669Z,0.00
2022-07-30T02:10:36.675Z,0.00
2022-07-30T02:11:36.673Z,0.00
2022-07-30T02:12:36.679Z,0.00
2022-07-30T02:13:36.688Z,0.00
2022-07-30T02:14:36.685Z,0.00
2022-07-30T02:15:36.692Z,0.00
2022-07-30T02:16:36.730Z,0.00
2022-07-30T02:17:39.887Z,0.00
2022-07-30T02:18:39.455Z,0.00
2022-07-30T02:19:36.680Z,0.00
2022-07-30T02:20:38.402Z,0.00
2022-07-30T02:21:37.155Z,0.00
2022-07-30T02:22:36.741Z,0.00
2022-07-30T02:23:36.724Z,0.00
2022-07-30T02:24:36.711Z,0.00
2022-07-30T02:25:36.704Z,0.00
2022-07-30T02:26:36.693Z,0.00
2022-07-30T02:27:38.165Z,0.00
2022-07-30T02:28:36.751Z,0.00
2022-07-30T02:29:36.714Z,0.00
2022-07-30T02:30:36.715Z,0.00
2022-07-30T02:31:36.746Z,0.00
2022-07-30T02:32:36.713Z,0.00
2022-07-30T02:33:36.725Z,0.00
2022-07-30T02:34:36.722Z,0.00
2022-07-30T02:35:36.720Z,0.00
2022-07-30T02:36:36.714Z,0.00
2022-07-30T02:37:39.276Z,0.00
2022-07-30T02:38:36.750Z,0.00
2022-07-30T02:39:36.713Z,0.00
2022-07-30T02:40:36.721Z,0.00
2022-07-30T02:41:36.727Z,0.00
2022-07-30T02:42:36.723Z,0.00
2022-07-30T02:43:36.774Z,0.00
2022-07-30T02:44:36.750Z,0.00
2022-07-30T02:45:36.745Z,0.00
2022-07-30T02:46:36.764Z,0.00
2022-07-30T02:47:36.738Z,0.00
2022-07-30T02:48:36.733Z,0.00
2022-07-30T02:49:36.739Z,0.00
2022-07-30T02:50:36.764Z,0.00
2022-07-30T02:51:36.742Z,0.00
2022-07-30T02:52:36.757Z,4.00
2022-07-30T02:53:36.755Z,4.00
2022-07-30T02:54:36.750Z,0.00
2022-07-30T02:55:36.745Z,0.00
2022-07-30T02:56:36.743Z,0.00
2022-07-30T02:57:36.747Z,4.00
2022-07-30T02:58:36.744Z,4.00
2022-07-30T02:59:36.756Z,4.00
2022-07-30T03:00:36.769Z,4.00
2022-07-30T03:01:36.800Z,8.00
2022-07-30T03:02:36.773Z,4.00
2022-07-30T03:03:36.760Z,8.00
2022-07-30T03:04:36.759Z,8.00
2022-07-30T03:05:36.761Z,12.00
2022-07-30T03:06:36.785Z,8.00
2022-07-30T03:07:36.766Z,12.00
2022-07-30T03:08:36.765Z,12.00
2022-07-30T03:09:50.945Z,16.00
2022-07-30T03:10:36.782Z,12.00
2022-07-30T03:11:36.766Z,20.00
2022-07-30T03:12:36.822Z,20.00
2022-07-30T03:13:36.780Z,24.00
2022-07-30T03:14:36.771Z,24.00
2022-07-30T03:15:39.181Z,24.00
2022-07-30T03:16:36.855Z,32.00
2022-07-30T03:17:36.772Z,32.00
2022-07-30T03:18:36.775Z,36.00
2022-07-30T03:19:36.773Z,40.00
2022-07-30T03:20:36.786Z,44.00
2022-07-30T03:21:36.777Z,48.00
2022-07-30T03:22:36.786Z,52.00
2022-07-30T03:23:36.786Z,56.00
2022-07-30T03:24:36.811Z,60.00
2022-07-30T03:25:36.794Z,60.00
2022-07-30T03:26:36.787Z,64.00
2022-07-30T03:27:36.786Z,64.00
2022-07-30T03:28:36.798Z,68.00
2022-07-30T03:29:36.797Z,72.00
2022-07-30T03:30:36.801Z,72.00
2022-07-30T03:31:37.872Z,76.00
2022-07-30T03:32:36.801Z,76.00
2022-07-30T03:33:38.581Z,80.00
2022-07-30T03:34:36.803Z,84.00
2022-07-30T03:35:36.796Z,80.00
2022-07-30T03:36:36.806Z,80.00
2022-07-30T03:37:36.809Z,80.00
2022-07-30T03:38:36.806Z,84.00
2022-07-30T03:39:36.810Z,88.00
2022-07-30T03:40:36.804Z,96.00
2022-07-30T03:41:36.808Z,100.00
2022-07-30T03:42:36.914Z,108.00
2022-07-30T03:43:36.813Z,112.00
2022-07-30T03:44:36.817Z,112.00
2022-07-30T03:45:36.813Z,120.00
2022-07-30T03:46:36.918Z,128.00
2022-07-30T03:47:36.824Z,132.00
2022-07-30T03:48:36.825Z,144.00
2022-07-30T03:49:36.821Z,152.00
2022-07-30T03:50:36.823Z,160.00
2022-07-30T03:51:36.835Z,168.00
2022-07-30T03:52:36.824Z,184.00
2022-07-30T03:53:36.829Z,200.00
2022-07-30T03:54:36.826Z,216.00
2022-07-30T03:55:36.825Z,240.00
2022-07-30T03:56:36.840Z,264.00
2022-07-30T03:57:36.829Z,280.00
2022-07-30T03:58:36.834Z,300.00
2022-07-30T03:59:36.838Z,320.00
2022-07-30T04:00:36.840Z,336.00
2022-07-30T04:01:36.888Z,352.00
2022-07-30T04:02:36.844Z,364.00
2022-07-30T04:03:36.911Z,372.00
2022-07-30T04:04:36.843Z,372.00
2022-07-30T04:05:41.334Z,380.00
2022-07-30T04:06:36.851Z,384.00
2022-07-30T04:07:44.924Z,396.00
2022-07-30T04:08:36.852Z,412.00
2022-07-30T04:09:36.858Z,424.00
2022-07-30T04:10:36.852Z,440.00
2022-07-30T04:11:40.905Z,456.00
2022-07-30T04:12:36.855Z,472.00
2022-07-30T04:13:36.851Z,484.00
2022-07-30T04:14:37.029Z,496.00
2022-07-30T04:16:40.108Z,500.00
2022-07-30T04:16:41.572Z,504.00
2022-07-30T04:17:36.938Z,508.00
2022-07-30T04:18:36.862Z,516.00
2022-07-30T04:19:36.870Z,524.00
2022-07-30T04:20:36.912Z,540.00
2022-07-30T04:21:36.870Z,556.00
2022-07-30T04:22:36.877Z,576.00
2022-07-30T04:24:04.840Z,592.00
2022-07-30T04:24:36.882Z,608.00
2022-07-30T04:25:36.889Z,620.00
2022-07-30T04:26:36.874Z,628.00
2022-07-30T04:27:36.871Z,640.00
2022-07-30T04:28:36.881Z,652.00
2022-07-30T04:29:36.876Z,672.00
2022-07-30T04:30:36.923Z,688.00
2022-07-30T04:31:38.188Z,708.00
2022-07-30T04:32:36.883Z,736.00
2022-07-30T04:33:36.892Z,768.00
2022-07-30T04:34:36.907Z,800.00
2022-07-30T04:35:50.065Z,836.00
2022-07-30T04:36:36.895Z,860.00
2022-07-30T04:37:36.893Z,880.00
2022-07-30T04:38:36.905Z,900.00
2022-07-30T04:39:36.909Z,920.00
2022-07-30T04:40:36.899Z,940.00
2022-07-30T04:41:49.204Z,968.00
2022-07-30T04:42:36.910Z,1000.00
2022-07-30T04:43:36.905Z,1036.00
2022-07-30T04:44:36.925Z,1080.00
2022-07-30T04:45:36.901Z,1116.00
2022-07-30T04:46:36.923Z,1152.00
2022-07-30T04:47:36.912Z,1192.00
2022-07-30T04:48:36.917Z,1220.00
2022-07-30T04:49:36.905Z,1260.00
2022-07-30T04:50:36.912Z,1292.00
2022-07-30T04:51:36.915Z,1332.00
2022-07-30T04:52:36.915Z,1368.00
2022-07-30T04:53:36.928Z,1404.00
2022-07-30T04:54:36.926Z,1420.00
2022-07-30T04:55:36.919Z,1432.00
2022-07-30T04:56:36.922Z,1448.00
2022-07-30T04:57:36.919Z,1472.00
2022-07-30T04:58:36.924Z,1488.00
2022-07-30T04:59:36.923Z,1504.00
2022-07-30T05:00:40.921Z,1524.00
2022-07-30T05:01:40.761Z,1556.00
2022-07-30T05:02:36.943Z,1600.00
2022-07-30T05:03:36.931Z,1640.00
2022-07-30T05:04:36.937Z,1680.00
2022-07-30T05:05:36.990Z,1716.00
2022-07-30T05:06:36.943Z,1768.00
2022-07-30T05:07:36.945Z,1828.00
2022-07-30T05:08:36.940Z,1884.00
2022-07-30T05:09:36.940Z,1948.00
2022-07-30T05:10:36.950Z,2004.00
2022-07-30T05:11:36.950Z,2056.00
2022-07-30T05:12:36.948Z,2104.00
2022-07-30T05:13:38.386Z,2188.00
2022-07-30T05:14:36.964Z,2276.00
2022-07-30T05:15:37.474Z,2364.00
2022-07-30T05:16:36.959Z,2440.00
2022-07-30T05:17:36.964Z,2512.00
2022-07-30T05:18:37.004Z,2592.00
2022-07-30T05:19:36.962Z,2656.00
2022-07-30T05:20:36.975Z,2684.00
2022-07-30T05:21:36.970Z,2672.00
2022-07-30T05:22:36.969Z,2660.00
2022-07-30T05:23:36.962Z,2688.00
2022-07-30T05:24:36.966Z,2740.00
2022-07-30T05:25:36.967Z,2788.00
2022-07-30T05:26:36.976Z,2828.00
2022-07-30T05:27:36.978Z,2864.00
2022-07-30T05:28:36.972Z,2896.00
2022-07-30T05:29:36.981Z,2940.00
2022-07-30T05:30:36.984Z,3012.00
2022-07-30T05:31:38.092Z,3084.00
2022-07-30T05:32:36.989Z,3128.00
2022-07-30T05:33:37.293Z,3160.00
2022-07-30T05:34:36.986Z,3204.00
2022-07-30T05:35:36.994Z,3252.00
2022-07-30T05:36:37.005Z,3324.00
2022-07-30T05:37:36.997Z,3396.00
2022-07-30T05:38:36.998Z,3472.00
2022-07-30T05:39:37.000Z,3544.00
2022-07-30T05:40:37.015Z,3584.00
2022-07-30T05:41:37.012Z,3624.00
2022-07-30T05:42:37.014Z,3704.00
2022-07-30T05:43:37.012Z,3768.00
2022-07-30T05:44:37.009Z,3840.00
2022-07-30T05:45:37.009Z,3916.00
2022-07-30T05:46:37.062Z,4036.00
2022-07-30T05:47:37.024Z,4180.00
2022-07-30T05:48:37.015Z,4344.00
2022-07-30T05:49:37.026Z,4408.00
2022-07-30T05:50:37.020Z,4704.00
2022-07-30T05:51:37.062Z,4888.00
2022-07-30T05:52:37.034Z,5132.00
2022-07-30T05:53:37.024Z,5152.00
2022-07-30T05:54:37.038Z,5476.00
2022-07-30T05:55:37.031Z,5752.00
2022-07-30T05:56:37.041Z,6028.00
2022-07-30T05:57:37.040Z,6368.00
2022-07-30T05:58:37.047Z,7068.00
2022-07-30T05:59:37.056Z,7124.00
2022-07-30T06:00:37.052Z,7204.00
2022-07-30T06:01:37.076Z,7316.00
2022-07-30T06:02:37.058Z,7792.00
2022-07-30T06:03:37.067Z,7544.00
2022-07-30T06:04:37.078Z,7824.00
2022-07-30T06:05:37.058Z,6828.00
2022-07-30T06:06:37.071Z,7508.00
2022-07-30T06:07:37.060Z,8136.00
2022-07-30T06:08:37.067Z,8100.00
2022-07-30T06:09:37.443Z,9036.00
2022-07-30T06:10:37.072Z,9772.00
2022-07-30T06:11:37.076Z,9724.00
2022-07-30T06:12:37.079Z,11624.00
2022-07-30T06:13:37.083Z,14012.00
2022-07-30T06:14:37.116Z,12792.00
2022-07-30T06:15:37.131Z,10560.00
2022-07-30T06:16:37.085Z,10440.00
2022-07-30T06:17:41.188Z,11128.00
2022-07-30T06:18:37.095Z,11260.00
2022-07-30T06:19:37.099Z,16308.00
2022-07-30T06:20:37.102Z,18976.00
2022-07-30T06:22:06.242Z,21888.00
2022-07-30T06:22:37.114Z,23904.00
2022-07-30T06:23:37.108Z,19872.00
2022-07-30T06:24:37.136Z,17728.00
2022-07-30T06:25:37.156Z,24512.00
2022-07-30T06:26:37.134Z,27072.00
2022-07-30T06:27:39.729Z,28096.00
2022-07-30T06:28:38.766Z,24448.00
2022-07-30T06:29:37.135Z,26912.00
2022-07-30T06:30:37.191Z,30112.00
2022-07-30T06:31:37.172Z,29632.00
2022-07-30T06:32:37.161Z,27776.00
2022-07-30T06:33:37.181Z,23776.00
2022-07-30T06:34:37.178Z,26720.00
2022-07-30T06:35:37.180Z,27968.00
2022-07-30T06:36:37.185Z,23776.00
2022-07-30T06:38:05.851Z,18400.00
2022-07-30T06:38:37.197Z,18432.00
2022-07-30T06:39:56.710Z,17888.00
2022-07-30T06:40:37.193Z,18848.00
2022-07-30T06:41:37.228Z,16736.00
2022-07-30T06:42:37.204Z,16896.00
2022-07-30T06:43:37.213Z,16160.00
2022-07-30T06:44:37.212Z,18144.00
2022-07-30T06:45:37.220Z,14968.00
2022-07-30T06:46:37.399Z,14604.00
2022-07-30T06:47:37.242Z,20000.00
2022-07-30T06:48:37.250Z,21248.00
2022-07-30T06:49:37.243Z,22400.00
2022-07-30T06:50:37.255Z,28352.00
2022-07-30T06:51:37.265Z,28384.00
2022-07-30T06:52:37.264Z,26816.00
2022-07-30T06:53:42.725Z,29792.00
2022-07-30T06:54:37.287Z,27776.00
2022-07-30T06:55:37.291Z,32480.00
2022-07-30T06:56:37.291Z,30560.00
2022-07-30T06:57:42.380Z,27232.00
2022-07-30T06:58:37.310Z,21504.00
2022-07-30T06:59:56.568Z,16896.00
2022-07-30T07:00:37.323Z,17600.00
2022-07-30T07:01:37.391Z,15104.00
2022-07-30T07:02:37.333Z,21376.00
2022-07-30T07:03:39.861Z,16928.00
2022-07-30T07:04:37.412Z,19872.00
2022-07-30T07:05:37.359Z,25504.00
2022-07-30T07:06:37.370Z,26304.00
2022-07-30T07:07:42.312Z,21504.00
2022-07-30T07:08:37.364Z,20384.00
2022-07-30T07:09:38.483Z,19136.00
2022-07-30T07:10:37.443Z,15592.00
2022-07-30T07:11:37.388Z,15060.00
2022-07-30T07:12:37.393Z,17536.00
2022-07-30T07:13:37.408Z,12692.00
2022-07-30T07:14:37.406Z,13472.00
2022-07-30T07:15:37.748Z,15320.00
2022-07-30T07:16:37.482Z,20288.00
2022-07-30T07:17:37.442Z,21248.00
2022-07-30T07:18:37.448Z,23584.00
2022-07-30T07:20:00.172Z,15404.00
2022-07-30T07:20:37.446Z,18112.00
2022-07-30T07:21:37.463Z,17824.00
2022-07-30T07:22:37.462Z,19040.00
2022-07-30T07:23:42.332Z,14056.00
2022-07-30T07:24:37.475Z,13024.00
2022-07-30T07:25:37.495Z,15528.00
2022-07-30T07:26:37.528Z,12964.00
2022-07-30T07:27:37.491Z,11036.00
2022-07-30T07:28:37.518Z,9564.00
2022-07-30T07:29:37.504Z,10244.00
2022-07-30T07:30:37.549Z,11600.00
2022-07-30T07:32:04.505Z,19296.00
2022-07-30T07:32:37.548Z,14148.00
2022-07-30T07:33:37.535Z,12960.00
2022-07-30T07:34:37.536Z,15236.00
2022-07-30T07:35:41.142Z,13688.00
2022-07-30T07:36:37.627Z,13116.00
2022-07-30T07:37:37.562Z,16016.00
2022-07-30T07:38:37.554Z,12284.00
2022-07-30T07:39:42.017Z,12920.00
2022-07-30T07:40:37.560Z,12500.00
2022-07-30T07:41:48.519Z,11436.00
2022-07-30T07:42:37.609Z,11404.00
2022-07-30T07:43:37.581Z,11336.00
2022-07-30T07:44:37.588Z,11256.00
2022-07-30T07:45:37.634Z,10344.00
2022-07-30T07:46:37.673Z,14792.00
2022-07-30T07:47:37.610Z,15608.00
2022-07-30T07:48:37.616Z,21920.00
2022-07-30T07:49:37.617Z,12064.00
2022-07-30T07:50:37.618Z,10488.00
2022-07-30T07:51:48.345Z,9576.00
2022-07-30T07:52:37.632Z,9504.00
2022-07-30T07:53:37.644Z,12384.00
2022-07-30T07:54:37.641Z,9036.00
2022-07-30T07:55:37.679Z,8616.00
2022-07-30T07:56:37.658Z,8648.00
2022-07-30T07:57:37.662Z,10272.00
2022-07-30T07:58:38.292Z,8968.00
2022-07-30T07:59:39.967Z,8912.00
2022-07-30T08:00:37.701Z,9388.00
2022-07-30T08:01:37.714Z,8720.00
2022-07-30T08:02:37.741Z,8524.00
2022-07-30T08:03:37.694Z,8888.00
2022-07-30T08:04:37.698Z,8784.00
2022-07-30T08:06:01.083Z,9636.00
2022-07-30T08:06:37.712Z,10748.00
2022-07-30T08:07:37.712Z,10236.00
2022-07-30T08:08:37.722Z,10072.00
2022-07-30T08:09:40.702Z,9156.00
2022-07-30T08:10:37.738Z,10108.00
2022-07-30T08:11:37.748Z,10132.00
2022-07-30T08:12:37.736Z,10280.00
2022-07-30T08:13:49.106Z,9768.00
2022-07-30T08:14:37.750Z,9784.00
2022-07-30T08:15:37.783Z,10548.00
2022-07-30T08:16:37.845Z,9640.00
2022-07-30T08:17:37.785Z,9740.00
2022-07-30T08:18:37.804Z,9532.00
2022-07-30T08:19:37.830Z,9012.00
2022-07-30T08:20:37.795Z,9536.00
2022-07-30T08:21:37.792Z,8788.00
2022-07-30T08:22:37.809Z,8520.00
2022-07-30T08:23:42.166Z,9260.00
2022-07-30T08:24:37.802Z,9460.00
2022-07-30T08:25:37.894Z,9148.00
2022-07-30T08:26:37.828Z,9124.00
2022-07-30T08:27:37.826Z,8652.00
2022-07-30T08:28:37.839Z,8744.00
2022-07-30T08:29:37.846Z,8468.00
2022-07-30T08:30:37.870Z,8356.00
2022-07-30T08:31:37.840Z,8344.00
2022-07-30T08:32:37.874Z,7988.00
2022-07-30T08:33:37.845Z,7864.00
2022-07-30T08:34:37.856Z,7760.00
2022-07-30T08:35:37.858Z,7704.00
2022-07-30T08:36:37.863Z,7692.00
2022-07-30T08:37:37.871Z,7708.00
2022-07-30T08:38:37.876Z,7840.00
2022-07-30T08:39:37.877Z,8060.00
2022-07-30T08:40:37.885Z,8440.00
2022-07-30T08:41:37.893Z,8728.00
2022-07-30T08:42:37.895Z,8664.00
2022-07-30T08:43:37.906Z,8824.00
2022-07-30T08:44:37.902Z,8400.00
2022-07-30T08:45:37.920Z,8076.00
2022-07-30T08:46:37.943Z,7788.00
2022-07-30T08:47:37.923Z,7700.00
2022-07-30T08:48:37.924Z,7668.00
2022-07-30T08:49:37.933Z,7668.00
2022-07-30T08:50:37.933Z,7640.00
2022-07-30T08:51:37.954Z,7652.00
2022-07-30T08:52:37.946Z,7684.00
2022-07-30T08:53:37.954Z,7764.00
2022-07-30T08:54:37.991Z,7808.00
2022-07-30T08:55:37.973Z,7760.00
2022-07-30T08:56:37.995Z,7712.00
2022-07-30T08:57:37.975Z,7956.00
2022-07-30T08:58:37.998Z,8092.00
2022-07-30T08:59:59.151Z,8148.00
2022-07-30T09:00:37.989Z,8316.00
2022-07-30T09:01:37.987Z,8632.00
2022-07-30T09:02:38.038Z,8708.00
2022-07-30T09:03:38.007Z,8924.00
2022-07-30T09:04:37.998Z,8908.00
2022-07-30T09:05:38.009Z,8776.00
2022-07-30T09:06:38.033Z,8660.00
2022-07-30T09:07:38.045Z,8172.00
2022-07-30T09:08:38.031Z,8020.00
2022-07-30T09:09:38.046Z,7876.00
2022-07-30T09:10:38.068Z,7752.00
2022-07-30T09:11:38.045Z,7680.00
2022-07-30T09:12:38.043Z,7568.00
2022-07-30T09:13:38.052Z,7440.00
2022-07-30T09:14:38.070Z,7320.00
2022-07-30T09:15:38.058Z,7248.00
2022-07-30T09:16:38.061Z,7200.00
2022-07-30T09:17:38.073Z,7232.00
2022-07-30T09:18:38.079Z,7344.00
2022-07-30T09:19:38.094Z,7464.00
2022-07-30T09:20:38.085Z,7584.00
2022-07-30T09:21:38.090Z,7724.00
2022-07-30T09:22:38.099Z,7736.00
2022-07-30T09:23:38.102Z,7724.00
2022-07-30T09:24:38.104Z,7720.00
2022-07-30T09:25:38.122Z,7680.00
2022-07-30T09:26:38.164Z,7648.00
2022-07-30T09:27:38.143Z,7588.00
2022-07-30T09:28:38.191Z,7468.00
2022-07-30T09:29:38.155Z,7332.00
2022-07-30T09:30:38.179Z,7212.00
2022-07-30T09:31:40.899Z,7100.00
2022-07-30T09:32:38.154Z,7004.00
2022-07-30T09:33:38.176Z,6936.00
2022-07-30T09:34:38.210Z,6892.00
2022-07-30T09:35:38.178Z,6868.00
2022-07-30T09:36:38.161Z,6856.00
2022-07-30T09:37:38.175Z,6876.00
2022-07-30T09:38:38.166Z,6880.00
2022-07-30T09:39:38.181Z,6856.00
2022-07-30T09:40:38.188Z,6848.00
2022-07-30T09:41:39.797Z,6728.00
2022-07-30T09:42:38.196Z,6676.00
2022-07-30T09:43:38.197Z,6536.00
2022-07-30T09:44:38.207Z,6452.00
2022-07-30T09:45:38.217Z,6384.00
2022-07-30T09:46:38.208Z,6348.00
2022-07-30T09:47:38.223Z,6328.00
2022-07-30T09:48:38.214Z,6304.00
2022-07-30T09:49:38.229Z,6284.00
2022-07-30T09:50:38.236Z,6268.00
2022-07-30T09:51:56.250Z,6216.00
2022-07-30T09:52:44.125Z,6184.00
2022-07-30T09:53:38.248Z,6196.00
2022-07-30T09:54:38.269Z,6180.00
2022-07-30T09:55:41.069Z,6216.00
2022-07-30T09:56:38.267Z,6200.00
2022-07-30T09:57:38.277Z,6324.00
2022-07-30T09:58:38.281Z,6492.00
2022-07-30T09:59:38.271Z,6664.00
2022-07-30T10:00:38.281Z,6864.00
2022-07-30T10:01:49.899Z,6832.00
2022-07-30T10:02:38.294Z,6952.00
2022-07-30T10:03:42.067Z,7280.00
2022-07-30T10:04:40.362Z,7408.00
2022-07-30T10:05:38.496Z,7456.00
2022-07-30T10:06:41.797Z,7612.00
2022-07-30T10:07:42.750Z,7832.00
2022-07-30T10:08:38.325Z,8072.00
2022-07-30T10:09:38.329Z,8296.00
2022-07-30T10:10:47.163Z,8580.00
2022-07-30T10:11:38.339Z,8776.00
2022-07-30T10:12:38.909Z,8888.00
2022-07-30T10:13:39.972Z,8628.00
2022-07-30T10:14:42.666Z,8648.00
2022-07-30T10:15:38.359Z,8276.00
2022-07-30T10:16:38.364Z,8312.00
2022-07-30T10:17:38.390Z,8160.00
2022-07-30T10:18:38.387Z,7952.00
2022-07-30T10:19:39.844Z,7888.00
2022-07-30T10:20:38.399Z,7732.00
2022-07-30T10:21:38.405Z,7744.00
2022-07-30T10:22:38.412Z,7744.00
2022-07-30T10:23:44.289Z,7540.00
2022-07-30T10:24:38.416Z,7392.00
2022-07-30T10:25:49.024Z,7140.00
2022-07-30T10:26:38.419Z,7040.00
2022-07-30T10:27:38.436Z,6980.00
2022-07-30T10:28:39.422Z,6924.00
2022-07-30T10:29:38.469Z,7048.00
2022-07-30T10:30:38.441Z,7092.00
2022-07-30T10:31:48.915Z,7144.00
2022-07-30T10:32:38.450Z,7192.00
2022-07-30T10:33:40.120Z,7272.00
2022-07-30T10:34:42.456Z,7380.00
2022-07-30T10:35:38.652Z,7336.00
2022-07-30T10:36:38.491Z,7300.00
2022-07-30T10:37:38.475Z,7288.00
2022-07-30T10:38:39.174Z,7292.00
2022-07-30T10:39:38.491Z,7312.00
2022-07-30T10:40:39.646Z,7316.00
2022-07-30T10:41:43.194Z,7304.00
2022-07-30T10:42:38.501Z,7304.00
2022-07-30T10:43:38.508Z,7156.00
2022-07-30T10:44:38.514Z,7060.00
2022-07-30T10:45:41.844Z,6956.00
2022-07-30T10:46:38.525Z,6868.00
2022-07-30T10:47:44.242Z,6804.00
2022-07-30T10:48:38.531Z,6684.00
2022-07-30T10:49:41.315Z,6672.00
2022-07-30T10:50:38.551Z,6624.00
2022-07-30T10:51:38.553Z,6508.00
2022-07-30T10:52:38.561Z,6412.00
2022-07-30T10:53:38.585Z,6372.00
2022-07-30T10:54:39.609Z,6456.00
2022-07-30T10:55:39.498Z,6788.00
2022-07-30T10:56:38.575Z,6812.00
2022-07-30T10:57:41.548Z,6800.00
2022-07-30T10:58:38.600Z,6796.00
2022-07-30T10:59:38.603Z,6648.00
2022-07-30T11:00:38.671Z,6600.00
2022-07-30T11:01:38.613Z,6672.00
2022-07-30T11:02:38.620Z,6668.00
2022-07-30T11:03:41.144Z,6776.00
2022-07-30T11:04:38.625Z,6768.00
2022-07-30T11:05:45.008Z,6696.00
2022-07-30T11:06:38.635Z,6704.00
2022-07-30T11:07:38.661Z,6820.00
2022-07-30T11:08:42.943Z,6860.00
2022-07-30T11:09:40.807Z,6908.00
2022-07-30T11:10:38.677Z,7036.00
2022-07-30T11:12:04.967Z,6860.00
2022-07-30T11:12:38.669Z,6576.00
2022-07-30T11:13:38.677Z,6460.00
2022-07-30T11:14:38.683Z,6548.00
2022-07-30T11:15:38.681Z,6572.00
2022-07-30T11:16:45.898Z,6552.00
2022-07-30T11:18:42.873Z,6608.00
2022-07-30T11:19:56.433Z,6704.00
2022-07-30T11:21:46.784Z,6832.00
2022-07-30T11:22:46.792Z,6952.00
2022-07-30T11:24:50.772Z,7232.00
2022-07-30T11:25:54.947Z,7332.00
2022-07-30T11:27:45.569Z,7084.00
2022-07-30T11:28:43.715Z,6892.00
2022-07-30T11:30:49.531Z,6736.00
2022-07-30T11:31:58.637Z,6748.00
2022-07-30T11:33:51.736Z,6816.00
2022-07-30T11:34:51.719Z,6924.00
2022-07-30T11:36:55.753Z,7036.00
2022-07-30T11:37:55.761Z,7016.00
2022-07-30T11:39:59.762Z,7096.00
2022-07-30T11:40:59.744Z,7120.00
2022-07-30T11:43:03.775Z,7248.00
2022-07-30T11:44:03.766Z,7044.00
2022-07-30T11:46:07.772Z,7368.00
2022-07-30T11:47:07.796Z,7284.00
2022-07-30T11:49:11.845Z,7188.00
2022-07-30T11:50:11.798Z,7152.00
2022-07-30T11:52:15.816Z,6844.00
2022-07-30T11:53:15.812Z,6628.00
2022-07-30T11:54:15.819Z,6276.00
2022-07-30T11:55:15.832Z,6424.00
2022-07-30T11:56:15.852Z,6516.00
2022-07-30T11:57:15.845Z,6768.00
2022-07-30T11:58:15.835Z,6788.00
2022-07-30T11:59:15.840Z,6948.00
2022-07-30T12:00:15.848Z,6624.00
2022-07-30T12:01:15.909Z,7148.00
2022-07-30T12:02:15.861Z,7040.00
2022-07-30T12:03:15.870Z,7200.00
2022-07-30T12:04:15.870Z,7052.00
2022-07-30T12:05:15.875Z,7060.00
2022-07-30T12:06:15.881Z,6520.00
2022-07-30T12:07:15.882Z,6100.00
2022-07-30T12:08:36.065Z,7160.00
2022-07-30T12:09:15.910Z,7048.00
2022-07-30T12:10:16.243Z,6912.00
2022-07-30T12:11:15.914Z,6572.00
2022-07-30T12:12:15.912Z,6572.00
2022-07-30T12:13:15.957Z,6224.00
2022-07-30T12:14:15.924Z,6276.00
2022-07-30T12:15:15.936Z,6500.00
2022-07-30T12:16:16.075Z,6580.00
2022-07-30T12:17:15.948Z,6796.00
2022-07-30T12:18:26.343Z,6896.00
2022-07-30T12:19:15.969Z,7120.00
2022-07-30T12:20:15.961Z,7264.00
2022-07-30T12:21:16.097Z,7284.00
2022-07-30T12:22:15.988Z,7360.00
2022-07-30T12:23:15.982Z,7316.00
2022-07-30T12:24:15.983Z,7276.00
2022-07-30T12:25:15.995Z,6640.00
2022-07-30T12:26:15.997Z,6796.00
2022-07-30T12:27:16.011Z,6960.00
2022-07-30T12:28:16.007Z,5848.00
2022-07-30T12:29:16.035Z,5772.00
2022-07-30T12:30:16.031Z,6068.00
2022-07-30T12:31:16.052Z,6592.00
2022-07-30T12:32:16.052Z,6676.00
2022-07-30T12:33:16.160Z,6392.00
2022-07-30T12:34:16.063Z,6276.00
2022-07-30T12:35:16.074Z,6740.00
2022-07-30T12:36:16.068Z,6896.00
2022-07-30T12:37:16.076Z,6924.00
2022-07-30T12:38:16.081Z,6908.00
2022-07-30T12:39:16.089Z,7024.00